Time;durP1;ratioP1;P1;durP2;ratioP2;P2;SDS_P1;SDS_P2;PMS_P1;PMS_P2;Temp;Humidity;BMP_temperature;BMP_pressure;BME280_temperature;BME280_humidity;BME280_pressure;Samples;Min_cycle;Max_cycle;Signal;HPM_P1;HPM_P2
2023/12/03 00:00:17;;;;;;;12.55;5.40;;;-2.20;99.90;;;;;;5038771;28;20799;-67
2023/12/03 00:02:46;;;;;;;13.80;5.65;;;-2.30;99.90;;;;;;5035568;28;21015;-68
2023/12/03 00:05:15;;;;;;;13.63;5.00;;;-2.20;99.90;;;;;;5041203;28;20205;-68
2023/12/03 00:07:44;;;;;;;13.30;5.53;;;-2.20;99.90;;;;;;5036221;28;20256;-64
2023/12/03 00:10:12;;;;;;;15.40;6.85;;;-2.30;99.90;;;;;;5032733;28;20289;-69
2023/12/03 00:12:41;;;;;;;12.63;5.45;;;-2.30;99.90;;;;;;5036358;28;20307;-67
2023/12/03 00:15:10;;;;;;;18.15;7.22;;;-2.30;99.90;;;;;;5035145;28;20205;-66
2023/12/03 00:17:38;;;;;;;17.10;5.15;;;-2.30;99.90;;;;;;5042217;28;20312;-64
2023/12/03 00:20:07;;;;;;;12.40;5.03;;;-2.30;99.90;;;;;;5037924;28;20197;-67
2023/12/03 00:22:35;;;;;;;15.45;6.80;;;-2.30;99.90;;;;;;5037163;28;20224;-66
2023/12/03 00:25:03;;;;;;;14.40;6.38;;;-2.30;99.90;;;;;;5038706;28;20279;-69
2023/12/03 00:27:31;;;;;;;13.57;5.68;;;-2.40;99.90;;;;;;5035298;28;20209;-66
2023/12/03 00:30:01;;;;;;;13.95;6.43;;;-2.40;99.90;;;;;;5032529;28;20217;-65
2023/12/03 00:32:28;;;;;;;12.32;5.78;;;-2.40;99.90;;;;;;5035298;28;20220;-68
2023/12/03 00:34:56;;;;;;;12.00;6.15;;;-2.40;99.90;;;;;;5041461;28;20205;-69
2023/12/03 00:37:24;;;;;;;12.98;5.57;;;-2.40;99.90;;;;;;5037938;28;20200;-66
2023/12/03 00:39:52;;;;;;;13.00;5.53;;;-2.50;99.90;;;;;;5030652;28;20200;-66
2023/12/03 00:42:20;;;;;;;13.60;5.40;;;-2.50;99.90;;;;;;5039556;28;20227;-67
2023/12/03 00:44:49;;;;;;;14.90;6.95;;;-2.40;99.90;;;;;;5038605;28;20213;-69
2023/12/03 00:47:18;;;;;;;14.10;6.70;;;-2.40;99.90;;;;;;5031959;28;20731;-66
2023/12/03 00:49:46;;;;;;;14.00;5.60;;;-2.40;99.90;;;;;;5029187;28;20292;-67
2023/12/03 00:52:14;;;;;;;13.45;5.60;;;-2.30;99.90;;;;;;5029617;28;20658;-67
2023/12/03 00:54:42;;;;;;;13.40;6.47;;;-2.30;99.90;;;;;;5026059;28;20237;-69
2023/12/03 00:57:10;;;;;;;14.15;6.10;;;-2.30;99.90;;;;;;5035967;28;20824;-68
2023/12/03 00:59:38;;;;;;;16.55;7.07;;;-2.30;99.90;;;;;;5037140;28;20214;-68
2023/12/03 01:02:07;;;;;;;13.00;5.95;;;-2.40;99.90;;;;;;5043362;28;20304;-67
2023/12/03 01:04:36;;;;;;;13.13;5.78;;;-2.40;99.90;;;;;;5037608;28;20287;-69
2023/12/03 01:07:04;;;;;;;13.38;5.57;;;-2.30;99.90;;;;;;5026722;28;20255;-65
2023/12/03 01:09:32;;;;;;;13.55;6.10;;;-2.30;99.90;;;;;;5038985;28;20209;-65
2023/12/03 01:12:01;;;;;;;13.18;6.03;;;-2.30;99.90;;;;;;5039844;28;20239;-67
2023/12/03 01:14:29;;;;;;;16.45;7.15;;;-2.30;99.90;;;;;;5029229;28;20295;-67
2023/12/03 01:16:57;;;;;;;14.85;6.25;;;-2.30;99.90;;;;;;5036728;28;20621;-69
2023/12/03 01:19:24;;;;;;;14.20;6.35;;;-2.20;99.90;;;;;;5041926;28;20207;-69
2023/12/03 01:21:54;;;;;;;15.75;6.97;;;-2.20;99.90;;;;;;5043720;28;20674;-66
2023/12/03 01:24:22;;;;;;;16.00;7.15;;;-2.20;99.90;;;;;;5039731;28;20200;-69
2023/12/03 01:26:50;;;;;;;14.65;6.20;;;-2.20;99.90;;;;;;5040164;28;20213;-69
2023/12/03 01:29:18;;;;;;;14.30;6.75;;;-2.20;99.90;;;;;;5036553;28;20266;-66
2023/12/03 01:31:46;;;;;;;17.80;7.13;;;-2.20;99.90;;;;;;5039818;28;20225;-67
2023/12/03 01:34:14;;;;;;;17.25;8.50;;;-2.10;99.90;;;;;;5041361;28;20207;-69
2023/12/03 01:36:42;;;;;;;16.02;6.88;;;-2.10;99.90;;;;;;5041450;28;20209;-68
2023/12/03 01:39:12;;;;;;;15.95;7.45;;;-2.00;99.90;;;;;;5038550;28;20289;-70
2023/12/03 01:41:40;;;;;;;14.88;6.57;;;-2.00;99.90;;;;;;5028498;28;20226;-67
2023/12/03 01:44:08;;;;;;;13.40;6.05;;;-2.00;99.90;;;;;;5040367;28;20192;-67
2023/12/03 01:46:36;;;;;;;14.88;6.80;;;-2.00;99.90;;;;;;5050189;28;20233;-69
2023/12/03 01:49:04;;;;;;;16.27;7.13;;;-2.00;99.90;;;;;;5049614;28;20586;-68
2023/12/03 01:51:32;;;;;;;17.45;7.70;;;-2.10;99.90;;;;;;5051778;28;20236;-66
2023/12/03 01:54:01;;;;;;;16.88;7.28;;;-2.00;99.90;;;;;;5048871;28;20205;-67
2023/12/03 01:56:30;;;;;;;16.33;6.93;;;-2.00;99.90;;;;;;5048322;28;20260;-67
2023/12/03 01:58:58;;;;;;;16.75;7.10;;;-2.10;99.90;;;;;;5053126;28;20209;-68
2023/12/03 02:01:26;;;;;;;13.35;7.03;;;-2.00;99.90;;;;;;5052570;28;20225;-69
2023/12/03 02:03:54;;;;;;;15.00;6.97;;;-2.00;99.90;;;;;;5045577;28;20879;-68
2023/12/03 02:06:22;;;;;;;16.75;7.65;;;-2.00;99.90;;;;;;5046940;28;20200;-66
2023/12/03 02:08:53;;;;;;;14.70;7.15;;;-2.00;99.90;;;;;;5052211;28;20292;-69
2023/12/03 02:11:21;;;;;;;16.25;7.30;;;-2.00;99.90;;;;;;5053513;28;20242;-67
2023/12/03 02:13:51;;;;;;;15.30;7.30;;;-2.00;99.90;;;;;;5048603;28;20686;-67
2023/12/03 02:16:19;;;;;;;15.32;6.80;;;-2.00;99.90;;;;;;5053322;28;20208;-66
2023/12/03 02:18:47;;;;;;;16.88;7.25;;;-2.00;99.90;;;;;;5052784;28;20585;-66
2023/12/03 02:21:15;;;;;;;14.82;7.55;;;-1.90;99.90;;;;;;5048035;28;20213;-66
2023/12/03 02:23:46;;;;;;;14.52;6.80;;;-1.90;99.90;;;;;;5053390;28;20638;-66
2023/12/03 02:26:14;;;;;;;15.25;7.47;;;-1.90;99.90;;;;;;5049976;28;20262;-66
2023/12/03 02:28:42;;;;;;;17.58;7.72;;;-1.80;99.90;;;;;;5052791;28;20291;-66
2023/12/03 02:31:10;;;;;;;18.40;7.57;;;-1.90;99.90;;;;;;5050478;28;20304;-66
2023/12/03 02:33:38;;;;;;;15.77;6.47;;;-1.90;99.90;;;;;;5050570;28;20228;-66
2023/12/03 02:36:08;;;;;;;15.90;7.20;;;-1.90;99.90;;;;;;5044463;28;20220;-67
2023/12/03 02:38:36;;;;;;;16.08;7.65;;;-2.00;99.90;;;;;;5051693;28;20336;-65
2023/12/03 02:41:07;;;;;;;16.58;7.22;;;-2.00;99.90;;;;;;5054140;28;20221;-66
2023/12/03 02:43:35;;;;;;;16.70;7.60;;;-2.00;99.90;;;;;;5047989;28;20638;-65
2023/12/03 02:46:05;;;;;;;17.33;7.65;;;-1.90;99.90;;;;;;5044109;28;20209;-66
2023/12/03 02:48:33;;;;;;;17.80;8.00;;;-2.00;99.90;;;;;;5049239;28;20943;-65
2023/12/03 02:51:01;;;;;;;16.63;7.93;;;-2.00;99.90;;;;;;5051598;28;20932;-68
2023/12/03 02:53:29;;;;;;;15.70;7.40;;;-2.00;99.90;;;;;;5052343;28;20205;-67
2023/12/03 02:55:59;;;;;;;19.10;7.70;;;-2.00;99.90;;;;;;5042188;28;20248;-67
2023/12/03 02:58:28;;;;;;;15.85;7.07;;;-1.90;99.90;;;;;;5049497;28;20710;-65
2023/12/03 03:00:56;;;;;;;17.92;8.93;;;-1.90;99.90;;;;;;5040099;28;20307;-66
2023/12/03 03:03:24;;;;;;;15.18;7.25;;;-2.00;99.90;;;;;;5049586;28;20209;-66
2023/12/03 03:05:52;;;;;;;15.40;6.30;;;-2.00;99.90;;;;;;5043886;28;20205;-66
2023/12/03 03:08:20;;;;;;;18.17;8.85;;;-1.90;99.90;;;;;;5048907;28;20727;-66
2023/12/03 03:10:48;;;;;;;14.57;6.85;;;-2.00;99.90;;;;;;5047671;28;20225;-67
2023/12/03 03:13:16;;;;;;;14.57;6.78;;;-2.00;99.90;;;;;;5048868;28;20211;-68
2023/12/03 03:15:45;;;;;;;16.50;8.05;;;-2.00;99.90;;;;;;5044749;28;20259;-66
2023/12/03 03:18:13;;;;;;;16.65;8.07;;;-2.00;99.90;;;;;;5048965;28;20256;-68
2023/12/03 03:20:41;;;;;;;16.40;7.07;;;-2.00;99.90;;;;;;5046824;28;20257;-69
2023/12/03 03:23:09;;;;;;;14.82;6.65;;;-2.00;99.90;;;;;;5049012;28;20236;-69
2023/12/03 03:25:37;;;;;;;12.93;6.63;;;-2.10;99.90;;;;;;5047760;28;20659;-65
2023/12/03 03:28:05;;;;;;;14.98;7.47;;;-2.10;99.90;;;;;;5045325;28;20228;-66
2023/12/03 03:30:33;;;;;;;15.38;6.97;;;-2.10;99.90;;;;;;5044730;28;20236;-67
2023/12/03 03:33:02;;;;;;;17.13;7.25;;;-2.20;99.90;;;;;;5048639;28;20225;-67
2023/12/03 03:35:30;;;;;;;17.50;7.78;;;-2.20;99.90;;;;;;5034591;28;20252;-66
2023/12/03 03:37:58;;;;;;;17.25;7.43;;;-2.20;99.90;;;;;;5040968;28;20225;-67
2023/12/03 03:40:26;;;;;;;15.68;7.13;;;-2.20;99.90;;;;;;5048658;28;20228;-69
2023/12/03 03:42:54;;;;;;;13.48;6.20;;;-2.10;99.90;;;;;;5045126;28;20232;-69
2023/12/03 03:45:22;;;;;;;16.92;6.85;;;-2.10;99.90;;;;;;5046736;28;20221;-67
2023/12/03 03:47:50;;;;;;;15.55;6.70;;;-2.10;99.90;;;;;;5047840;28;20213;-66
2023/12/03 03:50:20;;;;;;;14.23;6.93;;;-2.10;99.90;;;;;;5039518;28;20217;-65
2023/12/03 03:52:48;;;;;;;17.35;6.63;;;-2.10;99.90;;;;;;5051495;28;20252;-66
2023/12/03 03:55:16;;;;;;;14.27;6.28;;;-2.10;99.90;;;;;;5047363;28;20304;-66
2023/12/03 03:57:43;;;;;;;13.55;5.47;;;-2.10;99.90;;;;;;5046554;28;20225;-67
2023/12/03 04:00:12;;;;;;;14.70;6.07;;;-2.10;99.90;;;;;;5046465;28;20225;-67
2023/12/03 04:02:40;;;;;;;15.27;6.15;;;-2.20;99.90;;;;;;5039854;28;20209;-67
2023/12/03 04:05:09;;;;;;;12.88;5.50;;;-2.20;99.90;;;;;;5046695;28;20349;-67
2023/12/03 04:07:38;;;;;;;12.27;5.85;;;-2.30;99.90;;;;;;5046848;28;20217;-67
2023/12/03 04:10:07;;;;;;;13.00;6.03;;;-2.30;99.90;;;;;;5047284;28;20231;-67
2023/12/03 04:12:35;;;;;;;14.75;6.47;;;-2.30;99.90;;;;;;5047234;28;20236;-67
2023/12/03 04:15:04;;;;;;;13.68;5.43;;;-2.30;99.90;;;;;;5048396;28;20221;-66
2023/12/03 04:17:32;;;;;;;15.75;6.20;;;-2.30;99.90;;;;;;5047984;28;20580;-69
2023/12/03 04:20:00;;;;;;;14.73;6.22;;;-2.30;99.90;;;;;;5044619;28;20228;-66
2023/12/03 04:22:28;;;;;;;12.70;6.10;;;-2.20;99.90;;;;;;5047648;28;20209;-66
2023/12/03 04:24:57;;;;;;;14.13;6.30;;;-2.30;99.90;;;;;;5040233;28;21109;-66
2023/12/03 04:27:26;;;;;;;16.52;6.55;;;-2.40;99.90;;;;;;5045068;28;20194;-69
2023/12/03 04:29:54;;;;;;;14.43;5.72;;;-2.40;99.90;;;;;;5046803;28;20225;-65
2023/12/03 04:32:22;;;;;;;15.57;7.00;;;-2.50;99.90;;;;;;5044901;28;20294;-66
2023/12/03 04:34:50;;;;;;;15.50;6.63;;;-2.50;99.90;;;;;;5047747;28;20217;-67
2023/12/03 04:37:18;;;;;;;11.75;5.22;;;-2.50;99.90;;;;;;5038102;28;20221;-65
2023/12/03 04:39:46;;;;;;;12.60;5.60;;;-2.50;99.90;;;;;;5046949;28;20218;-66
2023/12/03 04:42:16;;;;;;;13.27;5.88;;;-2.50;99.90;;;;;;5046864;28;20304;-66
2023/12/03 04:44:44;;;;;;;13.27;5.13;;;-2.60;99.90;;;;;;5040496;28;20695;-68
2023/12/03 04:47:13;;;;;;;13.48;5.97;;;-2.50;99.90;;;;;;5038709;28;20274;-69
2023/12/03 04:49:41;;;;;;;13.20;6.25;;;-2.50;99.90;;;;;;5042978;28;20756;-69
2023/12/03 04:52:09;;;;;;;13.05;5.85;;;-2.50;99.90;;;;;;5046303;28;21138;-66
2023/12/03 04:54:37;;;;;;;14.02;5.70;;;-2.50;99.90;;;;;;5045166;28;20220;-66
2023/12/03 04:57:06;;;;;;;14.05;6.38;;;-2.50;99.90;;;;;;5044491;28;20220;-67
2023/12/03 04:59:35;;;;;;;17.75;6.70;;;-2.50;99.90;;;;;;5039837;28;20980;-68
2023/12/03 05:02:03;;;;;;;14.38;6.22;;;-2.60;99.90;;;;;;5046552;28;20217;-67
2023/12/03 05:04:31;;;;;;;12.77;6.28;;;-2.60;99.90;;;;;;5041631;28;20315;-69
2023/12/03 05:06:59;;;;;;;14.95;6.63;;;-2.70;99.90;;;;;;5038093;28;20634;-67
2023/12/03 05:09:27;;;;;;;15.50;6.80;;;-2.80;99.90;;;;;;5046945;28;20221;-65
2023/12/03 05:11:55;;;;;;;17.58;6.80;;;-2.90;99.90;;;;;;5034445;28;20237;-66
2023/12/03 05:14:23;;;;;;;11.57;5.15;;;-3.00;99.90;;;;;;5044730;28;20266;-66
2023/12/03 05:16:53;;;;;;;13.70;6.38;;;-3.00;99.90;;;;;;5046187;28;20225;-68
2023/12/03 05:19:20;;;;;;;13.57;6.82;;;-3.10;99.90;;;;;;5044024;28;20227;-68
2023/12/03 05:21:49;;;;;;;13.63;6.28;;;-3.10;99.90;;;;;;5043738;28;20232;-68
2023/12/03 05:24:17;;;;;;;16.13;6.63;;;-3.20;99.90;;;;;;5043910;28;20228;-69
2023/12/03 05:26:45;;;;;;;14.15;7.10;;;-3.20;99.90;;;;;;5044348;28;20299;-68
2023/12/03 05:29:12;;;;;;;16.80;7.55;;;-3.30;99.90;;;;;;5046114;28;20282;-66
2023/12/03 05:31:45;;;;;;;15.38;6.47;;;-3.30;99.90;;;;;;5042416;28;20228;-68
2023/12/03 05:34:15;;;;;;;16.90;7.55;;;-3.40;99.90;;;;;;5045613;28;20311;-66
2023/12/03 05:36:43;;;;;;;19.13;8.05;;;-3.40;99.90;;;;;;5045716;28;20374;-69
2023/12/03 05:39:11;;;;;;;15.88;6.90;;;-3.50;99.90;;;;;;5042365;28;20254;-69
2023/12/03 05:41:39;;;;;;;16.92;8.48;;;-3.50;99.90;;;;;;5040365;28;20285;-69
2023/12/03 05:44:08;;;;;;;16.40;7.47;;;-3.60;99.90;;;;;;5044826;28;20222;-68
2023/12/03 05:46:41;;;;;;;15.52;6.43;;;-3.60;99.90;;;;;;5036554;28;20277;-66
2023/12/03 05:49:09;;;;;;;14.48;6.80;;;-3.80;99.90;;;;;;5044784;28;20221;-66
2023/12/03 05:51:43;;;;;;;15.90;7.10;;;-4.00;99.90;;;;;;5045699;28;20225;-66
2023/12/03 05:54:11;;;;;;;16.15;7.28;;;-4.20;99.90;;;;;;5033717;28;20313;-67
2023/12/03 05:56:39;;;;;;;18.10;8.40;;;-4.40;99.90;;;;;;5036339;28;20232;-67
2023/12/03 05:59:07;;;;;;;16.35;7.25;;;-4.40;99.90;;;;;;5046113;28;20678;-66
2023/12/03 06:01:35;;;;;;;18.27;7.93;;;-4.50;99.90;;;;;;5039329;28;20225;-65
2023/12/03 06:04:06;;;;;;;15.05;7.85;;;-4.50;99.90;;;;;;5045114;28;20649;-66
2023/12/03 06:06:35;;;;;;;17.65;8.25;;;-4.60;99.90;;;;;;5045695;28;20228;-66
2023/12/03 06:09:05;;;;;;;17.45;8.05;;;-4.60;99.90;;;;;;5040086;28;20243;-66
2023/12/03 06:11:34;;;;;;;14.10;7.07;;;-4.80;99.90;;;;;;5050444;28;20231;-68
2023/12/03 06:14:02;;;;;;;17.60;8.32;;;-4.90;99.90;;;;;;5036376;28;20234;-66
2023/12/03 06:16:30;;;;;;;18.05;8.70;;;-4.70;99.90;;;;;;5047716;28;20226;-65
2023/12/03 06:18:58;;;;;;;16.30;7.68;;;-4.70;99.90;;;;;;5043812;28;20246;-68
2023/12/03 06:21:26;;;;;;;16.08;8.20;;;-4.80;99.90;;;;;;5042654;28;20231;-67
2023/12/03 06:23:54;;;;;;;17.15;7.70;;;-4.70;99.90;;;;;;5037678;28;20308;-66
2023/12/03 06:26:24;;;;;;;14.88;6.95;;;-4.70;99.90;;;;;;5044413;28;20219;-66
2023/12/03 06:28:52;;;;;;;18.13;8.02;;;-4.60;99.90;;;;;;5045483;28;20275;-67
2023/12/03 06:31:19;;;;;;;19.75;8.25;;;-4.70;99.90;;;;;;5044484;28;20224;-68
2023/12/03 06:33:47;;;;;;;16.02;7.57;;;-4.90;99.90;;;;;;5044159;28;20228;-69
2023/12/03 06:36:16;;;;;;;15.38;7.47;;;-5.00;99.90;;;;;;5047473;28;20623;-67
2023/12/03 06:38:44;;;;;;;17.85;9.10;;;-5.10;99.90;;;;;;5047863;28;20239;-66
2023/12/03 06:41:11;;;;;;;21.40;9.38;;;-5.10;99.90;;;;;;5048515;28;20232;-67
2023/12/03 06:43:41;;;;;;;19.55;8.35;;;-4.90;99.90;;;;;;5047187;28;20879;-65
2023/12/03 06:46:09;;;;;;;18.67;8.55;;;-4.70;99.90;;;;;;5050207;28;20227;-66
2023/12/03 06:48:37;;;;;;;17.85;7.07;;;-4.70;99.90;;;;;;5049799;28;20224;-67
2023/12/03 06:51:05;;;;;;;16.60;7.28;;;-4.70;99.90;;;;;;5043374;28;20312;-66
2023/12/03 06:53:33;;;;;;;22.40;8.70;;;-4.80;99.90;;;;;;5050579;28;20304;-64
2023/12/03 06:56:01;;;;;;;15.95;7.50;;;-4.70;99.90;;;;;;5049173;28;20206;-67
2023/12/03 06:58:29;;;;;;;16.92;7.70;;;-4.60;99.90;;;;;;5034721;28;20261;-66
2023/12/03 07:00:59;;;;;;;17.70;7.55;;;-4.60;99.90;;;;;;5050137;28;20748;-67
2023/12/03 07:03:27;;;;;;;17.50;7.60;;;-4.60;99.90;;;;;;5046208;28;20221;-68
2023/12/03 07:05:55;;;;;;;19.40;9.07;;;-4.70;99.90;;;;;;5046996;28;20223;-67
2023/12/03 07:08:23;;;;;;;20.42;9.07;;;-4.60;99.90;;;;;;5049785;28;20275;-67
2023/12/03 07:10:51;;;;;;;18.38;8.70;;;-4.70;99.90;;;;;;5049267;28;20225;-68
2023/12/03 07:13:19;;;;;;;16.98;7.40;;;-4.70;99.90;;;;;;5049521;28;20277;-66
2023/12/03 07:15:47;;;;;;;18.98;7.75;;;-4.70;99.90;;;;;;5048575;28;20271;-66
2023/12/03 07:18:16;;;;;;;18.13;8.82;;;-4.70;99.90;;;;;;5042226;28;20202;-66
2023/12/03 07:20:45;;;;;;;17.40;8.70;;;-4.70;99.90;;;;;;5045983;28;20316;-66
2023/12/03 07:23:13;;;;;;;16.90;7.68;;;-4.70;99.90;;;;;;5048872;28;20201;-68
2023/12/03 07:25:40;;;;;;;18.98;7.90;;;-4.80;99.90;;;;;;5050325;28;20768;-68
2023/12/03 07:28:08;;;;;;;18.40;8.48;;;-4.90;99.90;;;;;;5039304;28;20223;-68
2023/12/03 07:30:36;;;;;;;19.38;9.95;;;-4.90;99.90;;;;;;5044516;28;20205;-66
2023/12/03 07:33:04;;;;;;;17.83;7.93;;;-4.70;99.90;;;;;;5044079;28;20204;-69
2023/12/03 07:35:34;;;;;;;21.35;9.90;;;-4.70;99.90;;;;;;5044317;28;20817;-67
2023/12/03 07:38:02;;;;;;;19.25;8.63;;;-4.70;99.90;;;;;;5048175;28;20310;-67
2023/12/03 07:40:30;;;;;;;22.98;9.75;;;-4.50;99.90;;;;;;5045128;28;20233;-66
2023/12/03 07:42:58;;;;;;;21.63;9.70;;;-4.50;99.90;;;;;;5038525;28;20791;-66
2023/12/03 07:45:26;;;;;;;19.05;8.90;;;-4.30;99.90;;;;;;5047068;28;20217;-66
2023/12/03 07:47:54;;;;;;;20.67;9.90;;;-4.30;99.90;;;;;;5046898;28;20226;-66
2023/12/03 07:50:22;;;;;;;21.58;9.15;;;-4.20;99.90;;;;;;5046305;28;20266;-67
2023/12/03 07:52:51;;;;;;;19.80;8.88;;;-4.10;99.90;;;;;;5044527;28;20325;-68
2023/12/03 07:55:19;;;;;;;18.58;9.52;;;-4.10;99.90;;;;;;5042664;28;20304;-67
2023/12/03 07:57:47;;;;;;;21.48;9.60;;;-3.90;99.90;;;;;;5040401;28;20297;-66
2023/12/03 08:00:15;;;;;;;19.90;8.40;;;-3.90;99.90;;;;;;5044026;28;20235;-67
2023/12/03 08:02:43;;;;;;;21.88;9.30;;;-3.90;99.90;;;;;;5039799;28;20237;-69
2023/12/03 08:05:11;;;;;;;22.08;11.10;;;-3.80;99.90;;;;;;5046142;28;20219;-68
2023/12/03 08:07:39;;;;;;;20.33;8.77;;;-3.70;99.90;;;;;;5044158;28;20283;-69
2023/12/03 08:10:10;;;;;;;20.85;9.60;;;-3.50;99.90;;;;;;5047306;28;20275;-70
2023/12/03 08:12:38;;;;;;;20.13;10.20;;;-3.50;99.90;;;;;;5043587;28;20233;-71
2023/12/03 08:15:06;;;;;;;19.33;9.18;;;-3.40;99.90;;;;;;5037579;28;20691;-71
2023/12/03 08:17:34;;;;;;;19.40;8.55;;;-3.30;99.90;;;;;;5046301;28;20256;-67
2023/12/03 08:20:02;;;;;;;19.90;9.43;;;-3.20;99.90;;;;;;5042112;28;20216;-68
2023/12/03 08:22:30;;;;;;;21.50;10.90;;;-3.10;99.90;;;;;;5047956;28;20213;-68
2023/12/03 08:24:58;;;;;;;19.98;9.60;;;-3.00;99.90;;;;;;5043940;28;20194;-68
2023/12/03 08:27:27;;;;;;;19.00;8.60;;;-2.90;99.90;;;;;;5042502;28;20237;-70
2023/12/03 08:29:55;;;;;;;20.52;8.70;;;-2.70;99.90;;;;;;5049850;28;20214;-67
2023/12/03 08:32:23;;;;;;;19.35;9.90;;;-2.60;99.90;;;;;;5048302;28;20217;-67
2023/12/03 08:34:51;;;;;;;21.23;9.88;;;-2.40;99.90;;;;;;5044973;28;20231;-68
2023/12/03 08:37:19;;;;;;;21.13;10.70;;;-2.30;99.90;;;;;;5048493;28;20205;-68
2023/12/03 08:39:48;;;;;;;20.40;9.60;;;-2.20;99.90;;;;;;5046480;28;20653;-67
2023/12/03 08:42:18;;;;;;;22.77;11.35;;;-2.00;99.90;;;;;;5046653;28;20217;-66
2023/12/03 08:44:47;;;;;;;19.90;9.57;;;-1.90;99.90;;;;;;5043236;28;20201;-69
2023/12/03 08:47:18;;;;;;;20.77;9.40;;;-1.80;99.90;;;;;;5043007;28;20212;-65
2023/12/03 08:49:46;;;;;;;16.55;8.10;;;-1.60;99.90;;;;;;5047264;28;20201;-65
2023/12/03 08:52:15;;;;;;;19.75;9.98;;;-1.60;99.90;;;;;;5047732;28;20933;-65
2023/12/03 08:54:43;;;;;;;21.02;9.05;;;-1.40;99.90;;;;;;5042636;28;20308;-69
2023/12/03 08:57:11;;;;;;;22.08;10.65;;;-1.30;99.90;;;;;;5046246;28;20257;-72
2023/12/03 08:59:39;;;;;;;20.50;10.20;;;-1.30;99.90;;;;;;5046420;28;20745;-67
2023/12/03 09:02:08;;;;;;;20.75;9.80;;;-1.30;99.90;;;;;;5045416;28;20766;-70
2023/12/03 09:04:38;;;;;;;22.02;10.70;;;-1.10;99.90;;;;;;5041877;28;20211;-65
2023/12/03 09:07:06;;;;;;;19.63;9.63;;;-1.00;99.90;;;;;;5039341;28;20201;-67
2023/12/03 09:09:34;;;;;;;20.13;9.98;;;-1.00;99.90;;;;;;5044244;28;20311;-67
2023/12/03 09:12:03;;;;;;;18.83;8.85;;;-1.10;99.90;;;;;;5043923;28;20297;-67
2023/12/03 09:14:30;;;;;;;21.00;9.38;;;-1.00;99.90;;;;;;5045651;28;20329;-71
2023/12/03 09:17:03;;;;;;;17.77;9.43;;;-1.10;99.90;;;;;;5049153;28;20232;-69
2023/12/03 09:19:33;;;;;;;18.92;9.20;;;-1.10;99.90;;;;;;5040979;28;20217;-72
2023/12/03 09:22:01;;;;;;;18.48;9.25;;;-1.20;99.90;;;;;;5040510;28;20224;-70
2023/12/03 09:24:29;;;;;;;21.77;9.65;;;-1.20;99.90;;;;;;5044050;28;20199;-70
2023/12/03 09:26:57;;;;;;;21.35;9.82;;;-1.10;99.90;;;;;;5043278;28;20244;-69
2023/12/03 09:29:25;;;;;;;21.02;9.85;;;-1.20;99.90;;;;;;5047600;28;20305;-66
2023/12/03 09:31:53;;;;;;;21.20;9.43;;;-1.20;99.90;;;;;;5046910;28;20227;-68
2023/12/03 09:34:24;;;;;;;18.65;8.75;;;-1.20;99.90;;;;;;5043162;28;20244;-69
2023/12/03 09:36:56;;;;;;;23.83;11.55;;;-1.10;99.90;;;;;;5047416;28;20209;-69
2023/12/03 09:39:24;;;;;;;20.83;9.00;;;-1.10;99.90;;;;;;5046806;28;20203;-70
2023/12/03 09:41:54;;;;;;;19.92;9.23;;;-1.00;99.90;;;;;;5044984;28;20272;-71
2023/12/03 09:44:27;;;;;;;19.75;10.30;;;-1.10;99.90;;;;;;5035825;28;20288;-69
2023/12/03 09:46:56;;;;;;;19.73;10.75;;;-1.10;99.90;;;;;;5045943;28;20201;-72
2023/12/03 09:49:24;;;;;;;21.98;9.25;;;-1.00;99.90;;;;;;5046718;28;20695;-68
2023/12/03 09:51:52;;;;;;;20.05;9.65;;;-1.10;99.90;;;;;;5043077;28;20248;-68
2023/12/03 09:54:22;;;;;;;18.23;9.45;;;-1.00;99.90;;;;;;5044150;28;20704;-68
2023/12/03 09:56:55;;;;;;;24.10;10.07;;;-1.10;99.90;;;;;;5046265;28;20235;-68
2023/12/03 09:59:23;;;;;;;19.60;8.93;;;-1.00;99.90;;;;;;5045808;28;20383;-70
2023/12/03 10:01:52;;;;;;;17.35;8.93;;;-0.90;99.90;;;;;;5045350;28;20229;-68
2023/12/03 10:04:20;;;;;;;18.42;10.23;;;-0.90;99.90;;;;;;5044482;28;20208;-70
2023/12/03 10:06:50;;;;;;;20.17;9.70;;;-0.80;99.90;;;;;;5052341;28;20241;-69
2023/12/03 10:09:22;;;;;;;19.80;8.90;;;-0.60;99.90;;;;;;5057839;28;20215;-68
2023/12/03 10:11:55;;;;;;;19.35;9.30;;;-0.10;99.90;;;;;;5051220;28;20291;-70
2023/12/03 10:14:24;;;;;;;18.30;9.45;;;0.70;99.90;;;;;;5042503;28;20285;-67
2023/12/03 10:16:52;;;;;;;18.35;9.65;;;1.30;99.90;;;;;;5047597;28;20221;-66
2023/12/03 10:19:23;;;;;;;20.15;9.15;;;1.90;99.90;;;;;;5047071;28;20251;-66
2023/12/03 10:21:52;;;;;;;18.50;8.97;;;2.70;99.90;;;;;;5043118;28;20784;-68
2023/12/03 10:24:21;;;;;;;16.30;8.98;;;3.00;99.90;;;;;;5039250;28;21404;-68
2023/12/03 10:26:55;;;;;;;19.10;9.25;;;2.80;99.90;;;;;;5048029;28;20327;-70
2023/12/03 10:29:24;;;;;;;19.00;9.60;;;3.10;99.90;;;;;;5043135;28;20194;-67
2023/12/03 10:31:53;;;;;;;17.50;9.10;;;3.50;99.90;;;;;;5041565;28;20464;-70
2023/12/03 10:34:21;;;;;;;17.40;9.10;;;3.60;99.90;;;;;;5046479;28;21120;-68
2023/12/03 10:36:49;;;;;;;18.93;8.83;;;3.60;99.90;;;;;;5039197;28;20477;-69
2023/12/03 10:39:18;;;;;;;18.30;10.30;;;3.10;99.90;;;;;;5049997;28;20459;-65
2023/12/03 10:41:49;;;;;;;21.77;11.32;;;2.40;99.90;;;;;;5044856;28;20467;-66
2023/12/03 10:44:21;;;;;;;19.55;10.57;;;1.90;99.90;;;;;;5042604;28;20212;-67
2023/12/03 10:46:49;;;;;;;18.45;9.38;;;1.40;99.90;;;;;;5042562;28;20195;-66
2023/12/03 10:49:17;;;;;;;15.77;8.95;;;1.00;99.90;;;;;;5041147;28;20535;-67
2023/12/03 10:51:46;;;;;;;20.23;11.48;;;0.70;99.90;;;;;;5046556;28;20242;-68
2023/12/03 10:54:15;;;;;;;19.13;10.50;;;0.50;99.90;;;;;;5041784;28;20585;-68
2023/12/03 10:56:43;;;;;;;17.10;9.05;;;0.30;99.90;;;;;;5041432;28;20214;-71
2023/12/03 10:59:13;;;;;;;17.38;9.25;;;0.30;99.90;;;;;;5037775;28;20215;-69
2023/12/03 11:01:47;;;;;;;16.83;8.32;;;0.20;99.90;;;;;;5039664;28;20620;-69
2023/12/03 11:04:28;;;;;;;17.48;9.00;;;0.10;99.90;;;;;;5040012;28;20880;-67
2023/12/03 11:06:58;;;;;;;21.80;10.65;;;0.20;99.90;;;;;;5047901;28;20197;-68
2023/12/03 11:09:26;;;;;;;17.35;9.90;;;0.00;99.90;;;;;;5048703;28;20288;-68
2023/12/03 11:11:55;;;;;;;20.23;10.93;;;0.10;99.90;;;;;;5049027;28;20227;-67
2023/12/03 11:14:23;;;;;;;19.10;9.65;;;0.10;99.90;;;;;;5047501;28;20233;-67
2023/12/03 11:17:11;;;;;;;19.55;9.80;;;0.10;99.90;;;;;;5039646;28;20226;-69
2023/12/03 11:19:45;;;;;;;20.35;8.60;;;0.00;99.90;;;;;;5045351;28;20916;-69
2023/12/03 11:22:39;;;;;;;17.48;9.15;;;0.10;99.90;;;;;;5035899;28;20312;-68
2023/12/03 11:25:11;;;;;;;21.40;9.77;;;0.10;99.90;;;;;;5046771;28;20209;-70
2023/12/03 11:27:42;;;;;;;19.15;10.38;;;0.00;99.90;;;;;;5043852;28;20204;-67
2023/12/03 11:30:11;;;;;;;18.00;9.07;;;0.00;99.90;;;;;;5041100;28;20296;-68
2023/12/03 11:32:41;;;;;;;17.52;9.00;;;0.00;99.90;;;;;;5044423;28;20299;-68
2023/12/03 11:35:17;;;;;;;23.02;9.57;;;0.00;99.90;;;;;;5040714;28;20224;-70
2023/12/03 11:37:46;;;;;;;19.65;9.50;;;0.10;99.90;;;;;;5040930;28;20202;-70
2023/12/03 11:40:16;;;;;;;20.40;9.90;;;0.10;99.90;;;;;;5041950;28;20232;-68
2023/12/03 11:42:45;;;;;;;20.48;10.65;;;-0.10;99.90;;;;;;5045213;28;20225;-68
2023/12/03 11:45:18;;;;;;;18.85;9.98;;;-0.20;99.90;;;;;;5046210;28;20663;-68
2023/12/03 11:48:05;;;;;;;19.02;9.63;;;-0.10;99.90;;;;;;5041734;28;20248;-66
2023/12/03 11:50:35;;;;;;;19.40;10.48;;;-0.10;99.90;;;;;;5047863;28;20207;-65
2023/12/03 11:53:04;;;;;;;18.42;9.80;;;-0.10;99.90;;;;;;5044410;28;20205;-65
2023/12/03 11:55:34;;;;;;;20.80;9.98;;;-0.10;99.90;;;;;;5047285;28;20209;-65
2023/12/03 11:58:05;;;;;;;19.30;9.50;;;0.00;99.90;;;;;;5047242;28;20256;-70
2023/12/03 12:00:33;;;;;;;17.60;9.45;;;0.00;99.90;;;;;;5045558;28;20201;-65
2023/12/03 12:03:05;;;;;;;19.83;9.48;;;0.00;99.90;;;;;;5047280;28;20271;-65
2023/12/03 12:05:33;;;;;;;22.40;9.35;;;0.00;99.90;;;;;;5047790;28;20624;-65
2023/12/03 12:08:02;;;;;;;19.08;9.23;;;0.00;99.90;;;;;;5044547;28;20278;-69
2023/12/03 12:10:32;;;;;;;18.95;9.20;;;0.00;99.90;;;;;;5043051;28;20710;-67
2023/12/03 12:13:00;;;;;;;22.15;9.57;;;0.00;99.90;;;;;;5048722;28;20206;-68
2023/12/03 12:15:29;;;;;;;18.38;9.80;;;0.00;99.90;;;;;;5046830;28;20225;-65
2023/12/03 12:17:58;;;;;;;19.52;10.07;;;0.10;99.90;;;;;;5044055;28;20228;-65
2023/12/03 12:20:29;;;;;;;21.10;10.80;;;0.10;99.90;;;;;;5044490;28;20321;-64
2023/12/03 12:22:58;;;;;;;21.65;10.27;;;0.00;99.90;;;;;;5045022;28;20662;-67
2023/12/03 12:25:28;;;;;;;19.55;10.45;;;0.00;99.90;;;;;;5041659;28;20707;-66
2023/12/03 12:27:56;;;;;;;19.77;10.20;;;0.00;99.90;;;;;;5045190;28;20197;-66
2023/12/03 12:30:26;;;;;;;18.75;9.35;;;0.00;99.90;;;;;;5041769;28;20205;-65
2023/12/03 12:33:03;;;;;;;18.25;8.90;;;0.00;99.90;;;;;;5034597;28;20201;-67
2023/12/03 12:35:33;;;;;;;19.52;10.80;;;0.10;99.90;;;;;;5033201;28;20212;-69
2023/12/03 12:38:02;;;;;;;18.65;9.50;;;0.10;99.90;;;;;;5035866;28;20229;-67
2023/12/03 12:40:31;;;;;;;18.98;8.70;;;0.10;99.90;;;;;;5036690;28;20205;-65
2023/12/03 12:43:07;;;;;;;16.02;8.73;;;0.10;99.90;;;;;;5037681;28;20229;-67
2023/12/03 12:45:35;;;;;;;17.75;9.90;;;0.10;99.90;;;;;;5036613;28;20208;-69